Time;durP1;ratioP1;P1;durP2;ratioP2;P2;SDS_P1;SDS_P2;PMS_P1;PMS_P2;Temp;Humidity;BMP_temperature;BMP_pressure;BME280_temperature;BME280_humidity;BME280_pressure;Samples;Min_cycle;Max_cycle;Signal;HPM_P1;HPM_P2
2023/07/13 00:00:18;;;;;;;5.80;2.17;;;18.30;99.90;;;;;;5051904;28;20642;-71
2023/07/13 00:02:44;;;;;;;3.10;1.70;;;18.20;99.90;;;;;;5051855;28;20577;-71
2023/07/13 00:05:10;;;;;;;4.87;1.93;;;18.20;99.90;;;;;;5051887;28;20921;-71
2023/07/13 00:07:36;;;;;;;4.60;1.93;;;18.20;99.90;;;;;;5051923;28;20440;-71
2023/07/13 00:10:03;;;;;;;1.73;1.33;;;18.20;99.90;;;;;;5052016;28;20242;-71
2023/07/13 00:12:34;;;;;;;4.57;2.10;;;18.10;99.90;;;;;;5050339;28;20421;-71
2023/07/13 00:15:04;;;;;;;3.90;2.00;;;18.20;99.90;;;;;;5048478;28;20522;-71
2023/07/13 00:17:30;;;;;;;3.47;1.50;;;18.10;99.90;;;;;;5051699;28;20445;-71
2023/07/13 00:19:56;;;;;;;3.57;2.10;;;18.10;99.90;;;;;;5051873;28;20424;-71
2023/07/13 00:22:25;;;;;;;3.13;1.90;;;18.10;99.90;;;;;;5047502;28;20190;-71
2023/07/13 00:24:53;;;;;;;2.60;1.47;;;18.10;99.90;;;;;;5032154;28;20413;-71
2023/07/13 00:27:19;;;;;;;4.63;2.20;;;18.10;99.90;;;;;;5033021;28;20937;-71
2023/07/13 00:29:44;;;;;;;3.83;1.90;;;18.10;99.90;;;;;;5071973;28;20737;-71
2023/07/13 00:32:11;;;;;;;2.93;1.40;;;18.00;99.90;;;;;;5071594;28;20445;-71
2023/07/13 00:34:38;;;;;;;4.97;1.90;;;17.80;99.90;;;;;;5071998;28;20179;-71
2023/07/13 00:37:06;;;;;;;2.93;1.77;;;17.80;99.90;;;;;;5070189;28;20439;-71
2023/07/13 00:39:32;;;;;;;4.07;1.60;;;17.80;99.90;;;;;;5071259;28;20469;-71
2023/07/13 00:41:58;;;;;;;2.33;1.83;;;17.70;99.90;;;;;;5051491;28;20412;-71
2023/07/13 00:44:24;;;;;;;2.90;2.40;;;17.70;99.90;;;;;;5051527;28;20864;-71
2023/07/13 00:46:50;;;;;;;4.30;2.20;;;17.70;99.90;;;;;;5051484;28;20584;-72
2023/07/13 00:49:20;;;;;;;2.30;1.53;;;17.60;99.90;;;;;;5051600;28;20560;-71
2023/07/13 00:51:55;;;;;;;5.67;1.57;;;17.60;99.90;;;;;;5051368;28;20793;-71
2023/07/13 00:54:33;;;;;;;4.30;2.00;;;17.50;99.90;;;;;;5051333;28;20439;-71
2023/07/13 00:57:02;;;;;;;3.70;2.37;;;17.50;99.90;;;;;;5051069;28;20484;-71
2023/07/13 00:59:28;;;;;;;3.40;1.87;;;17.50;99.90;;;;;;5051272;28;20416;-71
2023/07/13 01:01:55;;;;;;;2.47;1.90;;;17.40;99.90;;;;;;5051118;28;21219;-71
2023/07/13 01:04:23;;;;;;;4.10;1.90;;;17.40;99.90;;;;;;5051169;28;20452;-71
2023/07/13 01:06:49;;;;;;;3.00;1.97;;;17.30;99.90;;;;;;5050982;28;20432;-71
2023/07/13 01:09:15;;;;;;;4.87;1.57;;;17.30;99.90;;;;;;5051247;28;20429;-71
2023/07/13 01:11:42;;;;;;;3.63;1.57;;;17.30;99.90;;;;;;5050807;28;20305;-71
2023/07/13 01:14:08;;;;;;;1.80;1.37;;;17.30;99.90;;;;;;5050776;28;20423;-71
2023/07/13 01:16:36;;;;;;;2.70;1.40;;;17.40;99.90;;;;;;5050810;28;21000;-71
2023/07/13 01:19:08;;;;;;;5.77;2.80;;;17.40;99.90;;;;;;5050946;28;20917;-71
2023/07/13 01:21:34;;;;;;;1.93;1.40;;;17.40;99.90;;;;;;5050747;28;20424;-71
2023/07/13 01:24:00;;;;;;;2.17;1.30;;;17.40;99.90;;;;;;5049975;28;20460;-71
2023/07/13 01:26:26;;;;;;;3.73;1.60;;;17.40;99.90;;;;;;5050545;28;21001;-71
2023/07/13 01:28:52;;;;;;;3.57;1.73;;;17.40;99.90;;;;;;5064239;28;20181;-71
2023/07/13 01:31:18;;;;;;;4.80;1.93;;;17.40;99.90;;;;;;5070560;28;20407;-71
2023/07/13 01:33:43;;;;;;;3.20;1.43;;;17.40;99.90;;;;;;5070411;28;20269;-71
2023/07/13 01:36:10;;;;;;;6.80;1.70;;;17.40;99.90;;;;;;5070465;28;20700;-71
2023/07/13 01:38:37;;;;;;;3.83;1.40;;;17.40;99.90;;;;;;5070431;28;20251;-71
2023/07/13 01:41:03;;;;;;;5.80;1.67;;;17.40;99.90;;;;;;5057433;28;20425;-71
2023/07/13 01:43:29;;;;;;;2.90;1.50;;;17.40;99.90;;;;;;5049945;28;20460;-71
2023/07/13 01:45:55;;;;;;;3.33;1.70;;;17.30;99.90;;;;;;5050474;28;20519;-72
2023/07/13 01:48:21;;;;;;;2.23;1.50;;;17.20;99.90;;;;;;5050334;28;20550;-71
2023/07/13 01:50:47;;;;;;;2.43;1.50;;;17.20;99.90;;;;;;5050405;28;20170;-71
2023/07/13 01:53:13;;;;;;;3.87;1.67;;;17.10;99.90;;;;;;5049897;28;20654;-71
2023/07/13 01:55:39;;;;;;;7.57;1.90;;;17.10;99.90;;;;;;5050125;28;20424;-71
2023/07/13 01:58:05;;;;;;;3.20;1.80;;;17.00;99.90;;;;;;5050023;28;20186;-71
2023/07/13 02:00:31;;;;;;;5.43;1.60;;;17.00;99.90;;;;;;5050157;28;20178;-71
2023/07/13 02:02:57;;;;;;;3.50;2.00;;;17.00;99.90;;;;;;5049699;28;20460;-71
2023/07/13 02:05:23;;;;;;;5.23;1.57;;;17.10;99.90;;;;;;5050149;28;20758;-71
2023/07/13 02:07:49;;;;;;;2.47;1.33;;;17.10;99.90;;;;;;5049795;28;20185;-71
2023/07/13 02:10:15;;;;;;;2.77;1.50;;;17.00;99.90;;;;;;5050241;28;20400;-71
2023/07/13 02:12:41;;;;;;;3.70;1.60;;;17.00;99.90;;;;;;5049546;28;20181;-71
2023/07/13 02:15:08;;;;;;;3.93;2.00;;;17.00;99.90;;;;;;5049934;28;20956;-71
2023/07/13 02:17:35;;;;;;;12.20;2.53;;;17.00;99.90;;;;;;5049756;28;20432;-71
2023/07/13 02:20:02;;;;;;;2.60;1.70;;;17.00;99.90;;;;;;5049882;28;20939;-71
2023/07/13 02:22:28;;;;;;;3.83;2.17;;;17.00;99.90;;;;;;5049460;28;20428;-71
2023/07/13 02:24:53;;;;;;;2.77;1.70;;;17.00;99.90;;;;;;5050014;28;20411;-71
2023/07/13 02:27:19;;;;;;;3.10;1.63;;;16.90;99.90;;;;;;5050352;28;20193;-71
2023/07/13 02:29:45;;;;;;;3.10;1.60;;;16.90;99.90;;;;;;5069862;28;20250;-71
2023/07/13 02:32:11;;;;;;;7.33;1.80;;;16.90;99.90;;;;;;5069444;28;20400;-71
2023/07/13 02:34:37;;;;;;;2.27;1.60;;;16.90;99.90;;;;;;5069653;28;20264;-71
2023/07/13 02:37:03;;;;;;;4.10;1.33;;;17.00;99.90;;;;;;5068840;28;20197;-71
2023/07/13 02:39:28;;;;;;;3.77;1.53;;;17.00;99.90;;;;;;5069835;28;20548;-71
2023/07/13 02:41:54;;;;;;;3.40;1.43;;;17.00;99.90;;;;;;5049300;28;20780;-71
2023/07/13 02:44:20;;;;;;;4.10;1.57;;;16.90;99.90;;;;;;5049300;28;20689;-71
2023/07/13 02:46:45;;;;;;;5.47;1.93;;;16.80;99.90;;;;;;5049530;28;20198;-71
2023/07/13 02:49:11;;;;;;;2.40;1.50;;;16.80;99.90;;;;;;5049555;28;20722;-71
2023/07/13 02:51:37;;;;;;;3.60;1.73;;;16.80;99.90;;;;;;5049497;28;20650;-71
2023/07/13 02:54:04;;;;;;;3.30;1.70;;;16.80;99.90;;;;;;5049180;28;20588;-71
2023/07/13 02:56:31;;;;;;;2.57;2.03;;;16.80;99.90;;;;;;5048134;28;20194;-71
2023/07/13 02:58:57;;;;;;;6.40;2.30;;;16.80;99.90;;;;;;5048038;28;20412;-71
2023/07/13 03:01:24;;;;;;;5.17;2.00;;;16.80;99.90;;;;;;5049545;28;20493;-71
2023/07/13 03:03:51;;;;;;;6.27;2.67;;;16.80;99.90;;;;;;5049019;28;20487;-71
2023/07/13 03:06:18;;;;;;;4.20;1.80;;;16.80;99.90;;;;;;5049616;28;20497;-71
2023/07/13 03:08:44;;;;;;;3.70;1.80;;;16.70;99.90;;;;;;5049043;28;20450;-71
2023/07/13 03:11:15;;;;;;;4.20;1.93;;;16.70;99.90;;;;;;5049296;28;20431;-71
2023/07/13 03:13:42;;;;;;;3.97;1.90;;;16.60;99.90;;;;;;5048972;28;20439;-71
2023/07/13 03:16:09;;;;;;;3.93;1.10;;;16.60;99.90;;;;;;5049137;28;20432;-71
2023/07/13 03:18:35;;;;;;;3.83;1.83;;;16.60;99.90;;;;;;5049102;28;20420;-71
2023/07/13 03:21:01;;;;;;;4.43;1.77;;;16.60;99.90;;;;;;5049378;28;21072;-71
2023/07/13 03:23:27;;;;;;;4.17;1.60;;;16.60;99.90;;;;;;5047613;28;20550;-71
2023/07/13 03:26:02;;;;;;;3.87;1.50;;;16.70;99.90;;;;;;5049129;28;20674;-71
2023/07/13 03:28:28;;;;;;;6.90;1.70;;;16.60;99.90;;;;;;5059174;28;20657;-71
2023/07/13 03:31:09;;;;;;;5.40;1.80;;;16.50;99.90;;;;;;5069234;28;20456;-71
2023/07/13 03:33:35;;;;;;;5.53;1.80;;;16.50;99.90;;;;;;5067647;28;20275;-71
2023/07/13 03:36:01;;;;;;;3.03;1.90;;;16.30;99.90;;;;;;5069158;28;21272;-71
2023/07/13 03:38:27;;;;;;;3.50;1.60;;;16.30;99.90;;;;;;5068822;28;20419;-70
2023/07/13 03:40:53;;;;;;;4.63;1.67;;;16.40;99.90;;;;;;5056238;28;20811;-71
2023/07/13 03:43:20;;;;;;;7.10;1.90;;;16.40;99.90;;;;;;5048665;28;20210;-71
2023/07/13 03:45:46;;;;;;;3.17;1.70;;;16.40;99.90;;;;;;5049053;28;20431;-71
2023/07/13 03:48:12;;;;;;;2.30;1.77;;;16.40;99.90;;;;;;5051626;28;20884;-71
2023/07/13 03:50:38;;;;;;;5.40;2.23;;;16.30;99.90;;;;;;5052683;28;20439;-71
2023/07/13 03:53:04;;;;;;;6.87;1.90;;;16.40;99.90;;;;;;5052136;28;20177;-71
2023/07/13 03:55:30;;;;;;;2.87;1.73;;;16.40;99.90;;;;;;5051114;28;20443;-71
2023/07/13 03:58:20;;;;;;;3.07;1.87;;;16.40;99.90;;;;;;5052495;28;20416;-71
2023/07/13 04:00:45;;;;;;;3.33;1.73;;;16.50;99.90;;;;;;5052467;28;20190;-71
2023/07/13 04:03:11;;;;;;;3.63;1.90;;;16.50;99.90;;;;;;5052030;28;20842;-71
2023/07/13 04:05:40;;;;;;;3.67;2.43;;;16.50;99.90;;;;;;5052159;28;20253;-71
2023/07/13 04:08:06;;;;;;;2.60;2.03;;;16.40;99.90;;;;;;5052338;28;20193;-71
2023/07/13 04:10:32;;;;;;;2.70;1.50;;;16.40;99.90;;;;;;5052110;28;20404;-71
2023/07/13 04:12:58;;;;;;;5.90;1.70;;;16.40;99.90;;;;;;5052120;28;20420;-71
2023/07/13 04:15:23;;;;;;;4.20;1.83;;;16.50;99.90;;;;;;5051990;28;20261;-71
2023/07/13 04:17:49;;;;;;;3.37;2.07;;;16.40;99.90;;;;;;5052220;28;20182;-71
2023/07/13 04:20:15;;;;;;;2.03;1.30;;;16.50;99.90;;;;;;5052075;28;20258;-71
2023/07/13 04:22:40;;;;;;;3.37;2.00;;;16.50;99.90;;;;;;5051930;28;20755;-71
2023/07/13 04:25:06;;;;;;;4.83;1.73;;;16.50;99.90;;;;;;5051931;28;20182;-71
2023/07/13 04:27:32;;;;;;;3.37;1.67;;;16.50;99.90;;;;;;5054265;28;20192;-71
2023/07/13 04:29:58;;;;;;;4.10;2.00;;;16.60;99.90;;;;;;5071824;28;20926;-71
2023/07/13 04:32:23;;;;;;;6.57;1.90;;;16.70;99.90;;;;;;5071680;28;20252;-71
2023/07/13 04:34:54;;;;;;;4.27;2.23;;;16.70;99.90;;;;;;5071794;28;20200;-71
2023/07/13 04:37:20;;;;;;;2.33;1.67;;;16.80;99.90;;;;;;5071939;28;20185;-71
2023/07/13 04:39:46;;;;;;;5.70;2.40;;;16.70;99.90;;;;;;5069277;28;20405;-71
2023/07/13 04:42:12;;;;;;;2.60;1.90;;;16.70;99.90;;;;;;5046169;28;21048;-71
2023/07/13 04:44:38;;;;;;;3.33;1.60;;;16.80;99.90;;;;;;5045610;28;20464;-71
2023/07/13 04:47:03;;;;;;;4.90;2.23;;;16.80;99.90;;;;;;5046796;28;20679;-71
2023/07/13 04:49:30;;;;;;;4.47;2.33;;;16.80;99.90;;;;;;5049167;28;20194;-71
2023/07/13 04:51:56;;;;;;;3.23;1.80;;;16.80;99.90;;;;;;5050623;28;20589;-71
2023/07/13 04:54:22;;;;;;;3.70;1.80;;;16.80;99.90;;;;;;5051631;28;20439;-71
2023/07/13 04:56:47;;;;;;;2.63;1.90;;;16.80;99.90;;;;;;5050693;28;20272;-71
2023/07/13 04:59:13;;;;;;;6.63;2.30;;;16.90;99.90;;;;;;5048956;28;20444;-71
2023/07/13 05:01:40;;;;;;;5.53;1.97;;;16.90;99.90;;;;;;5051375;28;20578;-71
2023/07/13 05:04:06;;;;;;;2.50;1.90;;;17.00;99.90;;;;;;5050983;28;20262;-71
2023/07/13 05:06:32;;;;;;;3.17;1.97;;;17.10;99.90;;;;;;5051157;28;20428;-71
2023/07/13 05:08:57;;;;;;;2.83;2.00;;;17.10;99.90;;;;;;5050951;28;20201;-71
2023/07/13 05:11:24;;;;;;;3.40;2.00;;;17.20;99.90;;;;;;5051071;28;20538;-71
2023/07/13 05:13:49;;;;;;;3.97;1.63;;;17.20;99.90;;;;;;5051576;28;20189;-71
2023/07/13 05:16:15;;;;;;;3.53;1.80;;;17.20;99.90;;;;;;5050795;28;20523;-71
2023/07/13 05:18:41;;;;;;;5.13;2.43;;;17.30;99.90;;;;;;5050958;28;20193;-71
2023/07/13 05:21:09;;;;;;;5.03;2.17;;;17.30;99.90;;;;;;5050700;28;20178;-71
2023/07/13 05:23:35;;;;;;;2.93;1.60;;;17.40;99.90;;;;;;5049346;28;20205;-72
2023/07/13 05:26:02;;;;;;;7.20;2.30;;;17.40;99.90;;;;;;5050720;28;20489;-72
2023/07/13 05:28:30;;;;;;;6.03;2.37;;;17.30;99.90;;;;;;5050683;28;20468;-71
2023/07/13 05:30:55;;;;;;;7.80;1.90;;;17.40;99.90;;;;;;5050794;28;20412;-72
2023/07/13 05:33:21;;;;;;;3.40;2.07;;;17.40;99.90;;;;;;5050524;28;20424;-71
2023/07/13 05:35:47;;;;;;;4.00;2.00;;;17.40;99.90;;;;;;5050455;28;20227;-72
2023/07/13 05:38:13;;;;;;;2.63;2.00;;;17.50;99.90;;;;;;5048736;28;20432;-71
2023/07/13 05:40:39;;;;;;;4.63;1.93;;;17.50;99.90;;;;;;5050153;28;20190;-71
2023/07/13 05:43:05;;;;;;;2.57;1.77;;;17.60;99.90;;;;;;5050178;28;20267;-72
2023/07/13 05:45:30;;;;;;;2.53;1.50;;;17.60;99.90;;;;;;5047479;28;20441;-70
2023/07/13 05:47:56;;;;;;;5.23;2.30;;;17.60;99.90;;;;;;5047271;28;20212;-71
2023/07/13 05:50:22;;;;;;;4.37;2.53;;;17.60;99.90;;;;;;5049497;28;20189;-71
2023/07/13 05:52:47;;;;;;;10.13;2.43;;;17.60;99.90;;;;;;5049534;28;20194;-71
2023/07/13 05:55:15;;;;;;;4.40;2.13;;;17.60;99.90;;;;;;5050454;28;20593;-71
2023/07/13 05:57:40;;;;;;;4.40;2.20;;;17.60;99.90;;;;;;5050467;28;20665;-71
2023/07/13 06:00:07;;;;;;;4.73;2.30;;;17.50;99.90;;;;;;5050119;28;20420;-71
2023/07/13 06:02:32;;;;;;;4.70;1.97;;;17.60;99.90;;;;;;5049917;28;20212;-71
2023/07/13 06:04:58;;;;;;;6.07;2.50;;;17.60;99.90;;;;;;5048330;28;20932;-71
2023/07/13 06:07:24;;;;;;;4.03;2.10;;;17.70;99.90;;;;;;5049240;28;20582;-71
2023/07/13 06:09:50;;;;;;;3.97;2.20;;;17.80;99.90;;;;;;5047402;28;20209;-71
2023/07/13 06:12:15;;;;;;;4.47;2.60;;;17.80;99.90;;;;;;5048586;28;20524;-71
2023/07/13 06:14:41;;;;;;;5.70;3.10;;;17.90;99.90;;;;;;5048595;28;20185;-72
2023/07/13 06:17:08;;;;;;;8.97;3.20;;;17.90;99.90;;;;;;5048132;28;20212;-71
2023/07/13 06:19:34;;;;;;;11.47;2.80;;;17.90;99.90;;;;;;5048458;28;20177;-71
2023/07/13 06:22:00;;;;;;;4.90;2.50;;;17.90;99.90;;;;;;5048430;28;20623;-72
2023/07/13 06:24:26;;;;;;;5.63;2.47;;;17.80;99.90;;;;;;5048721;28;20460;-71
2023/07/13 06:26:52;;;;;;;5.47;2.80;;;17.80;99.90;;;;;;5048660;28;20443;-71
2023/07/13 06:29:18;;;;;;;9.47;2.80;;;17.90;99.90;;;;;;5066763;28;20933;-72
2023/07/13 06:31:43;;;;;;;6.27;2.77;;;18.10;99.90;;;;;;5069657;28;20680;-71
2023/07/13 06:34:09;;;;;;;7.67;2.97;;;18.20;99.90;;;;;;5069621;28;20181;-71
2023/07/13 06:36:36;;;;;;;8.27;3.00;;;18.50;99.90;;;;;;5069449;28;20338;-71
2023/07/13 06:39:02;;;;;;;5.63;2.67;;;18.70;99.90;;;;;;5069629;28;20173;-71
2023/07/13 06:41:28;;;;;;;6.93;2.77;;;18.90;99.90;;;;;;5053217;28;20420;-71
2023/07/13 06:43:54;;;;;;;3.90;2.30;;;19.10;99.90;;;;;;5049643;28;20543;-71
2023/07/13 06:46:22;;;;;;;4.77;2.93;;;19.30;99.90;;;;;;5049460;28;20478;-71
2023/07/13 06:48:48;;;;;;;13.13;2.90;;;19.30;99.90;;;;;;5049569;28;20174;-71
2023/07/13 06:51:14;;;;;;;7.10;3.13;;;19.40;99.90;;;;;;5049434;28;20419;-71
2023/07/13 06:53:40;;;;;;;5.67;2.50;;;19.50;99.90;;;;;;5049335;28;20255;-71
2023/07/13 06:56:06;;;;;;;4.60;2.77;;;19.60;99.90;;;;;;5049333;28;20512;-71
2023/07/13 06:58:35;;;;;;;4.63;2.67;;;19.80;99.90;;;;;;5049481;28;20647;-71
2023/07/13 07:01:00;;;;;;;5.07;2.53;;;19.90;99.90;;;;;;5049343;28;20192;-71
2023/07/13 07:03:26;;;;;;;9.57;3.00;;;19.80;99.90;;;;;;5049094;28;20550;-71
2023/07/13 07:05:51;;;;;;;4.50;2.10;;;19.90;99.90;;;;;;5049281;28;20205;-71
2023/07/13 07:08:17;;;;;;;6.37;2.57;;;20.00;99.90;;;;;;5049245;28;20284;-71
2023/07/13 07:10:43;;;;;;;7.63;3.10;;;20.20;99.90;;;;;;5049309;28;20181;-72
2023/07/13 07:13:09;;;;;;;3.80;2.30;;;20.10;99.90;;;;;;5049038;28;20697;-71
2023/07/13 07:15:36;;;;;;;4.00;2.80;;;20.20;99.90;;;;;;5049369;28;20257;-71
2023/07/13 07:18:02;;;;;;;8.03;3.20;;;20.20;99.90;;;;;;5049187;28;20913;-71
2023/07/13 07:20:27;;;;;;;6.47;2.70;;;20.30;99.90;;;;;;5049332;28;20828;-71
2023/07/13 07:22:53;;;;;;;8.40;3.20;;;20.30;99.90;;;;;;5051508;28;20678;-71
2023/07/13 07:25:19;;;;;;;12.67;3.07;;;20.30;99.90;;;;;;5053188;28;20634;-71
2023/07/13 07:27:45;;;;;;;4.27;2.90;;;20.40;99.90;;;;;;5057044;28;20175;-71
2023/07/13 07:30:12;;;;;;;6.20;2.93;;;20.30;99.90;;;;;;5073043;28;20403;-71
2023/07/13 07:32:38;;;;;;;7.53;2.90;;;20.40;99.90;;;;;;5072587;28;20416;-71
2023/07/13 07:35:04;;;;;;;7.03;2.90;;;20.50;99.90;;;;;;5072821;28;20415;-71
2023/07/13 07:37:29;;;;;;;7.20;3.30;;;20.40;99.90;;;;;;5071281;28;20202;-71
2023/07/13 07:39:55;;;;;;;5.43;2.90;;;20.20;99.90;;;;;;5069362;28;20404;-71
2023/07/13 07:42:21;;;;;;;6.93;3.03;;;20.20;99.90;;;;;;5052493;28;20232;-71
2023/07/13 07:44:46;;;;;;;5.07;2.20;;;20.20;99.90;;;;;;5052826;28;20216;-71
2023/07/13 07:47:12;;;;;;;9.80;3.33;;;20.20;99.90;;;;;;5052543;28;20194;-71
2023/07/13 07:49:38;;;;;;;5.43;2.80;;;20.30;99.90;;;;;;5052759;28;20181;-71
2023/07/13 07:52:04;;;;;;;7.97;2.77;;;20.40;99.90;;;;;;5052410;28;20250;-71
2023/07/13 07:54:29;;;;;;;5.30;2.77;;;20.40;99.90;;;;;;5052685;28;20734;-71
2023/07/13 07:56:55;;;;;;;3.83;2.97;;;20.30;99.90;;;;;;5052396;28;20474;-71
2023/07/13 07:59:21;;;;;;;9.07;2.90;;;20.20;99.90;;;;;;5052571;28;20181;-71
2023/07/13 08:01:47;;;;;;;8.30;3.20;;;20.00;99.90;;;;;;5052474;28;20181;-71
2023/07/13 08:04:13;;;;;;;6.43;3.40;;;20.00;99.90;;;;;;5052266;28;20202;-71
2023/07/13 08:06:39;;;;;;;6.80;4.07;;;19.90;99.90;;;;;;5052399;28;20429;-71
2023/07/13 08:09:05;;;;;;;11.40;3.63;;;19.80;99.90;;;;;;5052360;28;20273;-71
2023/07/13 08:11:31;;;;;;;4.50;3.33;;;19.80;99.90;;;;;;5052345;28;20682;-71
2023/07/13 08:13:57;;;;;;;7.80;3.40;;;19.80;99.90;;;;;;5050721;28;20428;-71
2023/07/13 08:16:23;;;;;;;4.10;3.23;;;19.70;99.90;;;;;;5052138;28;20208;-71
2023/07/13 08:18:49;;;;;;;8.43;2.83;;;19.70;99.90;;;;;;5052170;28;20182;-71
2023/07/13 08:21:14;;;;;;;7.10;3.30;;;19.50;99.90;;;;;;5051076;28;20432;-70
2023/07/13 08:23:40;;;;;;;5.20;2.90;;;19.50;99.90;;;;;;5051882;28;20206;-71
2023/07/13 08:26:06;;;;;;;7.50;3.37;;;19.60;99.90;;;;;;5052307;28;20201;-71
2023/07/13 08:28:34;;;;;;;5.23;3.67;;;19.60;99.90;;;;;;5062654;28;20630;-71
2023/07/13 08:31:04;;;;;;;7.37;3.17;;;19.60;99.90;;;;;;5072474;28;20180;-71
2023/07/13 08:33:30;;;;;;;7.13;4.40;;;19.70;99.90;;;;;;5069263;28;20419;-71
2023/07/13 08:35:56;;;;;;;7.40;3.50;;;19.60;99.90;;;;;;5072255;28;20438;-71
2023/07/13 08:38:22;;;;;;;10.57;4.17;;;19.70;99.90;;;;;;5071922;28;20426;-71
2023/07/13 08:40:54;;;;;;;7.30;3.40;;;19.80;99.90;;;;;;5061042;28;20409;-71
2023/07/13 08:43:27;;;;;;;9.53;3.43;;;19.80;99.90;;;;;;5051254;28;20248;-71
2023/07/13 08:46:00;;;;;;;4.90;3.07;;;19.90;99.90;;;;;;5051258;28;20424;-70
2023/07/13 08:48:33;;;;;;;4.90;2.93;;;20.00;99.90;;;;;;5050934;28;20843;-71
2023/07/13 08:51:10;;;;;;;8.63;3.87;;;20.00;99.90;;;;;;5051318;28;20936;-70
2023/07/13 08:53:40;;;;;;;5.43;3.20;;;20.00;99.90;;;;;;5050503;28;20523;-71
2023/07/13 08:56:16;;;;;;;4.13;3.30;;;20.10;99.90;;;;;;5051337;28;20531;-71
2023/07/13 08:58:42;;;;;;;6.17;3.73;;;20.10;99.90;;;;;;5051135;28;20416;-71
2023/07/13 09:01:42;;;;;;;5.23;3.27;;;20.20;99.90;;;;;;5049796;28;20613;-71
2023/07/13 09:04:12;;;;;;;5.77;4.00;;;20.00;99.90;;;;;;5049356;28;20975;-71
2023/07/13 09:06:45;;;;;;;5.60;3.33;;;20.10;99.90;;;;;;5049879;28;20494;-71
2023/07/13 09:09:21;;;;;;;8.97;3.57;;;20.10;99.90;;;;;;5049771;28;20447;-71
2023/07/13 09:12:14;;;;;;;4.53;3.30;;;20.20;99.90;;;;;;5049901;28;20427;-71
2023/07/13 09:14:50;;;;;;;4.67;3.27;;;20.30;99.90;;;;;;5048963;28;20519;-71
2023/07/13 09:17:24;;;;;;;6.40;3.40;;;20.40;99.90;;;;;;5050160;28;20589;-70
2023/07/13 09:20:25;;;;;;;6.60;3.97;;;20.40;99.90;;;;;;5049188;28;20430;-71
2023/07/13 09:22:52;;;;;;;10.20;3.50;;;20.50;99.90;;;;;;5044125;28;20495;-71
2023/07/13 09:25:31;;;;;;;6.80;3.50;;;20.50;99.90;;;;;;5048989;28;20462;-72
2023/07/13 09:28:02;;;;;;;5.23;2.80;;;20.70;99.90;;;;;;5055372;28;20503;-70
2023/07/13 09:30:42;;;;;;;4.53;3.30;;;20.80;99.90;;;;;;5069024;28;20423;-70
2023/07/13 09:33:08;;;;;;;6.13;2.90;;;20.80;99.90;;;;;;5047832;28;20420;-70
2023/07/13 09:35:35;;;;;;;4.57;3.00;;;20.80;99.90;;;;;;5048659;28;20443;-71
2023/07/13 09:38:22;;;;;;;3.80;3.03;;;20.90;99.90;;;;;;5048591;28;20495;-70
2023/07/13 09:41:00;;;;;;;6.70;3.63;;;21.00;99.90;;;;;;5049396;28;20424;-70
2023/07/13 09:43:27;;;;;;;4.60;2.73;;;21.10;99.90;;;;;;5048746;28;20463;-70
2023/07/13 09:45:53;;;;;;;6.70;3.10;;;21.20;99.90;;;;;;5048469;28;20523;-70
2023/07/13 09:48:19;;;;;;;5.07;3.50;;;21.20;99.90;;;;;;5049181;28;20504;-70
2023/07/13 09:50:45;;;;;;;8.17;3.23;;;21.40;99.90;;;;;;5049327;28;20587;-70
2023/07/13 09:53:17;;;;;;;6.47;2.73;;;21.50;99.90;;;;;;5048770;28;20419;-70
2023/07/13 09:55:46;;;;;;;6.40;3.17;;;21.70;99.90;;;;;;5048305;28;20545;-70
2023/07/13 09:58:19;;;;;;;6.87;2.80;;;21.70;99.90;;;;;;5049174;28;20878;-70
2023/07/13 10:00:58;;;;;;;6.63;3.33;;;21.80;99.90;;;;;;5048926;28;20412;-70
2023/07/13 10:03:27;;;;;;;5.23;3.00;;;21.90;99.90;;;;;;5048503;28;20547;-71
2023/07/13 10:05:54;;;;;;;5.57;3.10;;;22.00;99.90;;;;;;5048404;28;20428;-71
2023/07/13 10:08:33;;;;;;;4.80;2.87;;;22.00;99.90;;;;;;5048833;28;20435;-71
2023/07/13 10:11:08;;;;;;;5.83;2.90;;;21.90;99.90;;;;;;5048723;28;20423;-71
2023/07/13 10:13:43;;;;;;;4.00;3.17;;;22.10;99.90;;;;;;5048210;28;20412;-71
2023/07/13 10:16:09;;;;;;;5.17;2.73;;;22.30;99.90;;;;;;5048523;28;20479;-71
2023/07/13 10:18:43;;;;;;;4.67;3.13;;;22.40;99.90;;;;;;5048686;28;20408;-72
2023/07/13 10:21:22;;;;;;;4.43;2.60;;;22.40;99.90;;;;;;5048784;28;20443;-71
2023/07/13 10:24:00;;;;;;;3.73;2.63;;;22.40;99.90;;;;;;5048083;28;20858;-71
2023/07/13 10:26:31;;;;;;;5.80;3.00;;;22.20;99.90;;;;;;5048085;28;20428;-71
2023/07/13 10:29:03;;;;;;;6.10;3.80;;;22.30;99.90;;;;;;5062521;28;20423;-71
2023/07/13 10:31:31;;;;;;;2.93;2.53;;;22.30;99.90;;;;;;5068516;28;20420;-70
2023/07/13 10:33:57;;;;;;;5.37;2.97;;;22.30;99.90;;;;;;5068176;28;20417;-70
2023/07/13 10:36:28;;;;;;;6.97;3.47;;;22.30;99.90;;;;;;5055119;28;20547;-70
2023/07/13 10:38:56;;;;;;;6.47;2.83;;;22.30;99.90;;;;;;5047898;28;20436;-70
2023/07/13 10:41:25;;;;;;;5.63;3.00;;;22.20;99.90;;;;;;5046611;28;20435;-72
2023/07/13 10:43:53;;;;;;;6.27;3.20;;;22.10;99.90;;;;;;5047356;28;20452;-71
2023/07/13 10:46:22;;;;;;;3.53;3.20;;;21.90;99.90;;;;;;5047482;28;20496;-71
2023/07/13 10:48:54;;;;;;;4.47;3.20;;;21.90;99.90;;;;;;5048034;28;20431;-71
2023/07/13 10:51:21;;;;;;;6.33;3.13;;;21.90;99.90;;;;;;5047860;28;21126;-71
2023/07/13 10:53:47;;;;;;;6.23;2.90;;;21.90;99.90;;;;;;5047434;28;20421;-71
2023/07/13 10:56:26;;;;;;;5.00;3.33;;;21.90;99.90;;;;;;5047468;28;20440;-71
2023/07/13 10:59:08;;;;;;;5.13;2.83;;;21.70;99.90;;;;;;5052047;28;20416;-72
2023/07/13 11:01:51;;;;;;;3.60;2.70;;;21.70;99.90;;;;;;5052180;28;20978;-72
2023/07/13 11:04:20;;;;;;;5.80;2.87;;;21.60;99.90;;;;;;5051380;28;20547;-72
2023/07/13 11:06:49;;;;;;;5.57;2.80;;;21.50;99.90;;;;;;5051795;28;20464;-72
2023/07/13 11:09:36;;;;;;;3.13;2.40;;;21.70;99.90;;;;;;5051720;28;20428;-72
2023/07/13 11:12:30;;;;;;;6.50;3.23;;;21.90;99.90;;;;;;5051421;28;20507;-72
2023/07/13 11:14:56;;;;;;;4.83;2.90;;;22.00;99.90;;;;;;5051592;28;20523;-72
2023/07/13 11:17:27;;;;;;;4.70;3.10;;;22.20;99.90;;;;;;5051676;28;20527;-72
2023/07/13 11:20:08;;;;;;;5.37;2.50;;;22.20;99.90;;;;;;5051742;28;20584;-72
2023/07/13 11:23:09;;;;;;;5.07;2.47;;;22.30;99.90;;;;;;5051246;28;20472;-71
2023/07/13 11:25:37;;;;;;;4.37;2.10;;;22.40;99.90;;;;;;5030162;28;20455;-72
2023/07/13 11:28:12;;;;;;;3.80;2.90;;;22.30;99.90;;;;;;5056834;28;20479;-71
2023/07/13 11:30:43;;;;;;;5.63;2.60;;;22.20;99.90;;;;;;5051563;28;20416;-71
2023/07/13 11:33:24;;;;;;;2.90;2.37;;;22.30;99.90;;;;;;5051004;28;20420;-71
2023/07/13 11:36:04;;;;;;;5.20;2.90;;;22.50;99.90;;;;;;5051098;28;20471;-72
2023/07/13 11:38:36;;;;;;;4.93;2.50;;;22.60;99.90;;;;;;5051236;28;20479;-72
2023/07/13 11:41:26;;;;;;;5.20;3.00;;;22.80;99.90;;;;;;5051337;28;20416;-72
2023/07/13 11:44:02;;;;;;;5.57;2.53;;;22.80;99.90;;;;;;5050846;28;21095;-72
2023/07/13 11:46:28;;;;;;;4.20;2.90;;;22.80;99.90;;;;;;5049651;28;20435;-72
2023/07/13 11:48:54;;;;;;;5.07;3.43;;;22.70;99.90;;;;;;5051029;28;20422;-72
2023/07/13 11:51:33;;;;;;;3.50;2.20;;;22.70;99.90;;;;;;5050988;28;20446;-72
2023/07/13 11:54:03;;;;;;;2.10;1.80;;;22.90;99.90;;;;;;5050586;28;20510;-72
2023/07/13 11:56:29;;;;;;;5.30;2.40;;;23.00;99.90;;;;;;5049691;28;20439;-72
2023/07/13 11:58:57;;;;;;;4.90;2.90;;;23.10;99.90;;;;;;5050943;28;20431;-71
2023/07/13 12:01:32;;;;;;;5.17;1.90;;;23.10;99.90;;;;;;5049640;28;20474;-72
2023/07/13 12:04:02;;;;;;;3.20;2.50;;;23.20;99.90;;;;;;5050407;28;20459;-72
2023/07/13 12:06:36;;;;;;;3.00;2.40;;;23.30;99.90;;;;;;5050600;28;20468;-72
2023/07/13 12:09:13;;;;;;;4.77;2.33;;;23.20;99.80;;;;;;5050561;28;20448;-72
2023/07/13 12:11:42;;;;;;;2.53;2.30;;;23.20;99.30;;;;;;5050836;28;20456;-71
2023/07/13 12:14:15;;;;;;;4.03;2.57;;;23.10;99.40;;;;;;5049958;28;20420;-71
2023/07/13 12:16:41;;;;;;;4.37;2.27;;;23.10;99.00;;;;;;5050751;28;20539;-72
2023/07/13 12:19:23;;;;;;;2.83;2.57;;;23.00;98.30;;;;;;5051080;28;20502;-72
2023/07/13 12:21:52;;;;;;;4.30;2.30;;;23.00;98.90;;;;;;5050945;28;20424;-72
2023/07/13 12:24:20;;;;;;;4.40;2.50;;;23.00;98.20;;;;;;5050247;28;20825;-72
2023/07/13 12:26:58;;;;;;;2.97;1.87;;;23.10;99.40;;;;;;5050282;28;20440;-72
2023/07/13 12:29:23;;;;;;;2.90;2.10;;;23.30;98.70;;;;;;5057055;28;20497;-72
2023/07/13 12:31:52;;;;;;;3.17;2.40;;;23.30;98.30;;;;;;5050699;28;20486;-71
2023/07/13 12:34:21;;;;;;;3.07;2.03;;;23.50;98.40;;;;;;5050177;28;20320;-71
2023/07/13 12:37:01;;;;;;;6.20;2.70;;;23.60;98.70;;;;;;5050122;28;20443;-72
2023/07/13 12:39:43;;;;;;;3.27;2.20;;;23.70;98.50;;;;;;5043942;28;20942;-72
2023/07/13 12:42:28;;;;;;;4.97;2.50;;;23.80;97.00;;;;;;5046399;28;20424;-72
2023/07/13 12:45:04;;;;;;;4.27;2.07;;;23.80;97.70;;;;;;5049798;28;20467;-72
2023/07/13 12:47:30;;;;;;;2.87;2.10;;;23.80;96.70;;;;;;5042886;28;20436;-71
2023/07/13 12:49:59;;;;;;;3.73;2.30;;;23.70;96.10;;;;;;5050373;28;20470;-71
2023/07/13 12:52:33;;;;;;;3.73;2.30;;;23.70;96.80;;;;;;5042686;28;20227;-71